Ridge, Texas
Current Conditions -  °F | °C
As of 1:55 PM on Friday 24 Oct 2014 (Local Time) from KLHB Reporting Station
Haze Haze  
Wind Chill: 78°   Ceiling: Unl
Heat Index: 79°   Visibility: 3mi
Dew Point: 57°   Wind: 0mph
Humidity: 48%   Direction: NA
Pressure: 30.15"   Gusts: NA
Location:  31.0654°N, 96.4194°W
Report Text: KLHB 241855Z AUTO 00000KT 3SM HZ CLR 25/14 A3015 RMK AO2 T02540138
Loading
Personal Weather Stations






























Interactive Weather Map
Tropical Storm Tracking
New forecast layout! Learn more

10-Day Weather Forecast

Advertisements
Track Severe Weather on mobile